sensor_id;sensor_type;location;lat;lon;timestamp;P1;durP1;ratioP1;P2;durP2;ratioP2
1839;SDS011;920;48.944;9.148;2023-09-07T00:00:40;5.30;;;3.80;;
1839;SDS011;920;48.944;9.148;2023-09-07T00:03:08;4.33;;;3.77;;
1839;SDS011;920;48.944;9.148;2023-09-07T00:05:35;4.10;;;3.70;;
1839;SDS011;920;48.944;9.148;2023-09-07T00:08:02;4.30;;;3.90;;
1839;SDS011;920;48.944;9.148;2023-09-07T00:10:29;3.67;;;3.27;;
1839;SDS011;920;48.944;9.148;2023-09-07T00:12:56;3.73;;;3.20;;
1839;SDS011;920;48.944;9.148;2023-09-07T00:15:23;6.43;;;4.20;;
1839;SDS011;920;48.944;9.148;2023-09-07T00:17:51;4.40;;;3.73;;
1839;SDS011;920;48.944;9.148;2023-09-07T00:20:19;4.27;;;3.70;;
1839;SDS011;920;48.944;9.148;2023-09-07T00:22:46;3.83;;;3.40;;
1839;SDS011;920;48.944;9.148;2023-09-07T00:25:13;3.53;;;3.23;;
1839;SDS011;920;48.944;9.148;2023-09-07T00:27:40;3.83;;;3.43;;
1839;SDS011;920;48.944;9.148;2023-09-07T00:30:07;4.10;;;3.70;;
1839;SDS011;920;48.944;9.148;2023-09-07T00:32:35;5.00;;;3.80;;
1839;SDS011;920;48.944;9.148;2023-09-07T00:35:02;4.20;;;3.70;;
1839;SDS011;920;48.944;9.148;2023-09-07T00:37:31;4.10;;;3.53;;
1839;SDS011;920;48.944;9.148;2023-09-07T00:39:58;4.17;;;3.73;;
1839;SDS011;920;48.944;9.148;2023-09-07T00:42:25;4.10;;;3.70;;
1839;SDS011;920;48.944;9.148;2023-09-07T00:44:52;4.03;;;3.60;;
1839;SDS011;920;48.944;9.148;2023-09-07T00:47:19;5.13;;;4.30;;
1839;SDS011;920;48.944;9.148;2023-09-07T00:49:46;4.60;;;3.93;;
1839;SDS011;920;48.944;9.148;2023-09-07T00:52:13;3.70;;;3.40;;
1839;SDS011;920;48.944;9.148;2023-09-07T00:54:43;4.20;;;3.40;;
1839;SDS011;920;48.944;9.148;2023-09-07T00:57:09;5.10;;;4.60;;
1839;SDS011;920;48.944;9.148;2023-09-07T00:59:36;6.87;;;3.87;;
1839;SDS011;920;48.944;9.148;2023-09-07T01:02:03;3.80;;;3.40;;
1839;SDS011;920;48.944;9.148;2023-09-07T01:04:30;3.77;;;3.37;;
1839;SDS011;920;48.944;9.148;2023-09-07T01:06:59;4.00;;;3.60;;
1839;SDS011;920;48.944;9.148;2023-09-07T01:09:30;4.13;;;3.50;;
1839;SDS011;920;48.944;9.148;2023-09-07T01:11:59;4.87;;;3.67;;
1839;SDS011;920;48.944;9.148;2023-09-07T01:14:26;4.73;;;4.23;;
1839;SDS011;920;48.944;9.148;2023-09-07T01:16:53;7.50;;;4.30;;
1839;SDS011;920;48.944;9.148;2023-09-07T01:19:20;6.53;;;3.87;;
1839;SDS011;920;48.944;9.148;2023-09-07T01:21:48;3.90;;;3.43;;
1839;SDS011;920;48.944;9.148;2023-09-07T01:24:16;4.03;;;3.50;;
1839;SDS011;920;48.944;9.148;2023-09-07T01:26:43;4.33;;;3.93;;
1839;SDS011;920;48.944;9.148;2023-09-07T01:29:14;6.90;;;3.67;;
1839;SDS011;920;48.944;9.148;2023-09-07T01:31:42;4.70;;;4.20;;
1839;SDS011;920;48.944;9.148;2023-09-07T01:34:09;5.13;;;4.30;;
1839;SDS011;920;48.944;9.148;2023-09-07T01:36:36;3.73;;;3.20;;
1839;SDS011;920;48.944;9.148;2023-09-07T01:39:04;4.13;;;3.73;;
1839;SDS011;920;48.944;9.148;2023-09-07T01:41:32;4.67;;;3.80;;
1839;SDS011;920;48.944;9.148;2023-09-07T01:43:59;3.57;;;3.23;;
1839;SDS011;920;48.944;9.148;2023-09-07T01:46:26;4.83;;;3.80;;
1839;SDS011;920;48.944;9.148;2023-09-07T01:48:53;3.57;;;3.27;;
1839;SDS011;920;48.944;9.148;2023-09-07T01:51:20;4.17;;;3.63;;
1839;SDS011;920;48.944;9.148;2023-09-07T01:53:47;4.37;;;3.90;;
1839;SDS011;920;48.944;9.148;2023-09-07T01:56:15;6.70;;;4.03;;
1839;SDS011;920;48.944;9.148;2023-09-07T01:58:42;4.57;;;4.10;;
1839;SDS011;920;48.944;9.148;2023-09-07T02:01:20;5.23;;;4.10;;
1839;SDS011;920;48.944;9.148;2023-09-07T02:03:47;8.43;;;5.30;;
1839;SDS011;920;48.944;9.148;2023-09-07T02:06:14;4.53;;;3.90;;
1839;SDS011;920;48.944;9.148;2023-09-07T02:08:42;4.77;;;4.27;;
1839;SDS011;920;48.944;9.148;2023-09-07T02:11:09;6.00;;;4.17;;
1839;SDS011;920;48.944;9.148;2023-09-07T02:13:40;4.40;;;3.63;;
1839;SDS011;920;48.944;9.148;2023-09-07T02:16:07;4.17;;;3.77;;
1839;SDS011;920;48.944;9.148;2023-09-07T02:18:35;4.20;;;3.80;;
1839;SDS011;920;48.944;9.148;2023-09-07T02:21:02;4.20;;;3.80;;
1839;SDS011;920;48.944;9.148;2023-09-07T02:23:30;4.27;;;3.87;;
1839;SDS011;920;48.944;9.148;2023-09-07T02:25:57;4.93;;;4.00;;
1839;SDS011;920;48.944;9.148;2023-09-07T02:28:25;4.10;;;3.70;;
1839;SDS011;920;48.944;9.148;2023-09-07T02:30:53;4.10;;;3.60;;
1839;SDS011;920;48.944;9.148;2023-09-07T02:33:20;5.20;;;4.50;;
1839;SDS011;920;48.944;9.148;2023-09-07T02:35:47;3.97;;;3.57;;
1839;SDS011;920;48.944;9.148;2023-09-07T02:38:15;4.00;;;3.60;;
1839;SDS011;920;48.944;9.148;2023-09-07T02:40:42;4.23;;;3.50;;
1839;SDS011;920;48.944;9.148;2023-09-07T02:43:10;5.10;;;3.43;;
1839;SDS011;920;48.944;9.148;2023-09-07T02:45:37;5.53;;;4.90;;
1839;SDS011;920;48.944;9.148;2023-09-07T02:48:06;6.20;;;5.00;;
1839;SDS011;920;48.944;9.148;2023-09-07T02:50:34;4.80;;;4.30;;
1839;SDS011;920;48.944;9.148;2023-09-07T02:53:01;4.10;;;3.70;;
1839;SDS011;920;48.944;9.148;2023-09-07T02:55:31;4.87;;;4.37;;
1839;SDS011;920;48.944;9.148;2023-09-07T02:57:58;5.07;;;4.37;;
1839;SDS011;920;48.944;9.148;2023-09-07T03:00:26;4.47;;;3.73;;
1839;SDS011;920;48.944;9.148;2023-09-07T03:02:52;4.90;;;4.10;;
1839;SDS011;920;48.944;9.148;2023-09-07T03:05:21;5.07;;;3.90;;
1839;SDS011;920;48.944;9.148;2023-09-07T03:07:48;3.80;;;3.33;;
1839;SDS011;920;48.944;9.148;2023-09-07T03:10:17;4.80;;;4.30;;
1839;SDS011;920;48.944;9.148;2023-09-07T03:12:45;4.40;;;4.00;;
1839;SDS011;920;48.944;9.148;2023-09-07T03:15:12;4.47;;;3.90;;
1839;SDS011;920;48.944;9.148;2023-09-07T03:17:40;5.00;;;4.17;;
1839;SDS011;920;48.944;9.148;2023-09-07T03:20:07;4.57;;;4.10;;
1839;SDS011;920;48.944;9.148;2023-09-07T03:22:43;5.47;;;4.97;;
1839;SDS011;920;48.944;9.148;2023-09-07T03:25:11;5.90;;;5.23;;
1839;SDS011;920;48.944;9.148;2023-09-07T03:27:38;4.70;;;4.20;;
1839;SDS011;920;48.944;9.148;2023-09-07T03:30:07;4.53;;;4.03;;
1839;SDS011;920;48.944;9.148;2023-09-07T03:32:35;5.60;;;5.10;;
1839;SDS011;920;48.944;9.148;2023-09-07T03:35:03;5.00;;;4.50;;
1839;SDS011;920;48.944;9.148;2023-09-07T03:37:32;4.73;;;4.20;;
1839;SDS011;920;48.944;9.148;2023-09-07T03:40:00;4.60;;;4.00;;
1839;SDS011;920;48.944;9.148;2023-09-07T03:42:27;4.40;;;3.80;;
1839;SDS011;920;48.944;9.148;2023-09-07T03:44:54;4.33;;;3.93;;
1839;SDS011;920;48.944;9.148;2023-09-07T03:47:20;6.27;;;5.67;;
1839;SDS011;920;48.944;9.148;2023-09-07T03:49:47;6.17;;;5.57;;
1839;SDS011;920;48.944;9.148;2023-09-07T03:52:14;4.90;;;3.90;;
1839;SDS011;920;48.944;9.148;2023-09-07T03:54:41;6.53;;;4.10;;
1839;SDS011;920;48.944;9.148;2023-09-07T03:57:09;4.50;;;4.03;;
1839;SDS011;920;48.944;9.148;2023-09-07T03:59:35;7.30;;;4.60;;
1839;SDS011;920;48.944;9.148;2023-09-07T04:02:03;5.60;;;4.47;;
1839;SDS011;920;48.944;9.148;2023-09-07T04:04:30;4.97;;;4.03;;
1839;SDS011;920;48.944;9.148;2023-09-07T04:06:56;5.03;;;4.10;;
1839;SDS011;920;48.944;9.148;2023-09-07T04:09:23;5.37;;;4.50;;
1839;SDS011;920;48.944;9.148;2023-09-07T04:11:52;4.07;;;3.67;;
1839;SDS011;920;48.944;9.148;2023-09-07T04:14:20;4.70;;;4.30;;
1839;SDS011;920;48.944;9.148;2023-09-07T04:16:46;5.53;;;4.60;;
1839;SDS011;920;48.944;9.148;2023-09-07T04:19:13;6.33;;;4.70;;
1839;SDS011;920;48.944;9.148;2023-09-07T04:21:40;4.10;;;3.70;;
1839;SDS011;920;48.944;9.148;2023-09-07T04:24:07;4.50;;;4.00;;
1839;SDS011;920;48.944;9.148;2023-09-07T04:26:36;4.27;;;3.63;;
1839;SDS011;920;48.944;9.148;2023-09-07T04:29:03;5.03;;;4.20;;
1839;SDS011;920;48.944;9.148;2023-09-07T04:31:32;4.83;;;3.77;;
1839;SDS011;920;48.944;9.148;2023-09-07T04:33:58;3.90;;;3.37;;
1839;SDS011;920;48.944;9.148;2023-09-07T04:36:28;4.67;;;3.63;;
1839;SDS011;920;48.944;9.148;2023-09-07T04:38:54;5.07;;;3.53;;
1839;SDS011;920;48.944;9.148;2023-09-07T04:41:23;5.10;;;4.07;;
1839;SDS011;920;48.944;9.148;2023-09-07T04:43:49;4.60;;;3.43;;
1839;SDS011;920;48.944;9.148;2023-09-07T04:46:16;3.60;;;3.20;;
1839;SDS011;920;48.944;9.148;2023-09-07T04:48:44;4.67;;;3.90;;
1839;SDS011;920;48.944;9.148;2023-09-07T04:51:11;4.10;;;3.63;;
1839;SDS011;920;48.944;9.148;2023-09-07T04:53:38;3.43;;;3.03;;
1839;SDS011;920;48.944;9.148;2023-09-07T04:56:06;4.10;;;3.63;;
1839;SDS011;920;48.944;9.148;2023-09-07T04:58:34;4.00;;;3.60;;
1839;SDS011;920;48.944;9.148;2023-09-07T05:01:01;4.30;;;3.23;;
1839;SDS011;920;48.944;9.148;2023-09-07T05:03:29;4.70;;;3.30;;
1839;SDS011;920;48.944;9.148;2023-09-07T05:05:57;5.00;;;3.63;;
1839;SDS011;920;48.944;9.148;2023-09-07T05:08:24;4.00;;;3.30;;
1839;SDS011;920;48.944;9.148;2023-09-07T05:10:54;4.17;;;3.33;;
1839;SDS011;920;48.944;9.148;2023-09-07T05:13:21;4.07;;;3.67;;
1839;SDS011;920;48.944;9.148;2023-09-07T05:15:48;5.07;;;3.77;;
1839;SDS011;920;48.944;9.148;2023-09-07T05:18:15;4.40;;;3.97;;
1839;SDS011;920;48.944;9.148;2023-09-07T05:20:42;6.97;;;4.00;;
1839;SDS011;920;48.944;9.148;2023-09-07T05:23:12;4.80;;;4.30;;
1839;SDS011;920;48.944;9.148;2023-09-07T05:25:44;5.93;;;4.13;;
1839;SDS011;920;48.944;9.148;2023-09-07T05:28:12;4.57;;;3.60;;
1839;SDS011;920;48.944;9.148;2023-09-07T05:30:39;6.03;;;4.10;;
1839;SDS011;920;48.944;9.148;2023-09-07T05:33:06;5.57;;;4.30;;
1839;SDS011;920;48.944;9.148;2023-09-07T05:35:33;4.50;;;3.93;;
1839;SDS011;920;48.944;9.148;2023-09-07T05:38:01;5.23;;;4.70;;
1839;SDS011;920;48.944;9.148;2023-09-07T05:40:29;4.77;;;4.10;;
1839;SDS011;920;48.944;9.148;2023-09-07T05:42:59;3.93;;;3.53;;
1839;SDS011;920;48.944;9.148;2023-09-07T05:45:26;4.90;;;4.43;;
1839;SDS011;920;48.944;9.148;2023-09-07T05:47:53;5.13;;;4.60;;
1839;SDS011;920;48.944;9.148;2023-09-07T05:50:19;6.70;;;4.80;;
1839;SDS011;920;48.944;9.148;2023-09-07T05:52:46;5.50;;;4.50;;
1839;SDS011;920;48.944;9.148;2023-09-07T05:55:13;5.47;;;4.87;;
1839;SDS011;920;48.944;9.148;2023-09-07T05:57:41;5.30;;;4.67;;
1839;SDS011;920;48.944;9.148;2023-09-07T06:00:08;7.80;;;4.67;;
1839;SDS011;920;48.944;9.148;2023-09-07T06:02:38;4.63;;;4.20;;
1839;SDS011;920;48.944;9.148;2023-09-07T06:05:08;4.43;;;3.97;;
1839;SDS011;920;48.944;9.148;2023-09-07T06:07:36;6.73;;;4.20;;
1839;SDS011;920;48.944;9.148;2023-09-07T06:10:03;4.60;;;3.90;;
1839;SDS011;920;48.944;9.148;2023-09-07T06:12:31;5.20;;;4.27;;
1839;SDS011;920;48.944;9.148;2023-09-07T06:14:59;4.80;;;4.10;;
1839;SDS011;920;48.944;9.148;2023-09-07T06:17:27;5.17;;;4.40;;
1839;SDS011;920;48.944;9.148;2023-09-07T06:19:54;4.70;;;4.17;;
1839;SDS011;920;48.944;9.148;2023-09-07T06:22:22;5.37;;;4.80;;
1839;SDS011;920;48.944;9.148;2023-09-07T06:24:50;5.43;;;4.00;;
1839;SDS011;920;48.944;9.148;2023-09-07T06:27:17;5.60;;;4.90;;
1839;SDS011;920;48.944;9.148;2023-09-07T06:29:44;6.50;;;5.30;;
1839;SDS011;920;48.944;9.148;2023-09-07T06:32:13;4.97;;;4.40;;
1839;SDS011;920;48.944;9.148;2023-09-07T06:34:41;5.33;;;4.83;;
1839;SDS011;920;48.944;9.148;2023-09-07T06:37:07;7.93;;;4.67;;
1839;SDS011;920;48.944;9.148;2023-09-07T06:39:34;4.80;;;4.30;;
1839;SDS011;920;48.944;9.148;2023-09-07T06:42:01;6.17;;;4.57;;
1839;SDS011;920;48.944;9.148;2023-09-07T06:44:36;4.53;;;4.13;;
1839;SDS011;920;48.944;9.148;2023-09-07T06:47:03;5.20;;;4.50;;
1839;SDS011;920;48.944;9.148;2023-09-07T06:49:31;5.50;;;4.77;;
1839;SDS011;920;48.944;9.148;2023-09-07T06:51:58;6.13;;;5.27;;
1839;SDS011;920;48.944;9.148;2023-09-07T06:54:24;5.30;;;4.80;;
1839;SDS011;920;48.944;9.148;2023-09-07T06:56:51;7.17;;;4.80;;
1839;SDS011;920;48.944;9.148;2023-09-07T06:59:18;5.77;;;4.63;;
1839;SDS011;920;48.944;9.148;2023-09-07T07:01:45;6.00;;;5.40;;
1839;SDS011;920;48.944;9.148;2023-09-07T07:04:12;7.10;;;4.50;;
1839;SDS011;920;48.944;9.148;2023-09-07T07:06:40;6.27;;;4.73;;
1839;SDS011;920;48.944;9.148;2023-09-07T07:09:07;5.77;;;4.80;;
1839;SDS011;920;48.944;9.148;2023-09-07T07:11:36;5.30;;;4.70;;
1839;SDS011;920;48.944;9.148;2023-09-07T07:14:04;7.57;;;5.50;;
1839;SDS011;920;48.944;9.148;2023-09-07T07:16:31;5.70;;;5.10;;
1839;SDS011;920;48.944;9.148;2023-09-07T07:18:58;5.70;;;4.83;;
1839;SDS011;920;48.944;9.148;2023-09-07T07:21:25;7.60;;;5.33;;
1839;SDS011;920;48.944;9.148;2023-09-07T07:23:53;7.67;;;4.97;;
1839;SDS011;920;48.944;9.148;2023-09-07T07:26:20;6.10;;;5.37;;
1839;SDS011;920;48.944;9.148;2023-09-07T07:28:48;6.33;;;4.40;;
1839;SDS011;920;48.944;9.148;2023-09-07T07:31:16;4.87;;;4.03;;
1839;SDS011;920;48.944;9.148;2023-09-07T07:33:45;5.23;;;4.73;;
1839;SDS011;920;48.944;9.148;2023-09-07T07:36:13;5.20;;;4.70;;
1839;SDS011;920;48.944;9.148;2023-09-07T07:38:40;6.30;;;4.93;;
1839;SDS011;920;48.944;9.148;2023-09-07T07:41:08;5.60;;;4.70;;
1839;SDS011;920;48.944;9.148;2023-09-07T07:43:35;6.23;;;5.63;;
1839;SDS011;920;48.944;9.148;2023-09-07T07:46:02;6.90;;;5.30;;
1839;SDS011;920;48.944;9.148;2023-09-07T07:48:30;5.63;;;5.13;;
1839;SDS011;920;48.944;9.148;2023-09-07T07:51:02;6.30;;;4.90;;
1839;SDS011;920;48.944;9.148;2023-09-07T07:53:29;5.17;;;4.67;;
1839;SDS011;920;48.944;9.148;2023-09-07T07:55:56;5.77;;;5.00;;
1839;SDS011;920;48.944;9.148;2023-09-07T07:58:25;5.50;;;5.00;;
1839;SDS011;920;48.944;9.148;2023-09-07T08:00:52;4.90;;;4.40;;
1839;SDS011;920;48.944;9.148;2023-09-07T08:03:25;5.47;;;4.93;;
1839;SDS011;920;48.944;9.148;2023-09-07T08:05:52;6.30;;;4.87;;
1839;SDS011;920;48.944;9.148;2023-09-07T08:08:19;6.13;;;5.13;;
1839;SDS011;920;48.944;9.148;2023-09-07T08:10:46;5.40;;;4.63;;
1839;SDS011;920;48.944;9.148;2023-09-07T08:13:13;5.13;;;4.63;;
1839;SDS011;920;48.944;9.148;2023-09-07T08:15:41;7.10;;;5.10;;
1839;SDS011;920;48.944;9.148;2023-09-07T08:18:09;8.43;;;5.23;;
1839;SDS011;920;48.944;9.148;2023-09-07T08:20:36;6.20;;;4.73;;
1839;SDS011;920;48.944;9.148;2023-09-07T08:23:05;5.10;;;4.60;;
1839;SDS011;920;48.944;9.148;2023-09-07T08:25:36;5.57;;;5.07;;
1839;SDS011;920;48.944;9.148;2023-09-07T08:28:04;5.47;;;4.87;;
1839;SDS011;920;48.944;9.148;2023-09-07T08:30:32;5.50;;;5.00;;
1839;SDS011;920;48.944;9.148;2023-09-07T08:33:00;6.40;;;5.80;;
1839;SDS011;920;48.944;9.148;2023-09-07T08:35:30;8.43;;;4.97;;
1839;SDS011;920;48.944;9.148;2023-09-07T08:38:00;5.97;;;5.37;;
1839;SDS011;920;48.944;9.148;2023-09-07T08:40:30;6.20;;;5.00;;
1839;SDS011;920;48.944;9.148;2023-09-07T08:42:58;6.27;;;5.67;;
1839;SDS011;920;48.944;9.148;2023-09-07T08:45:25;6.63;;;6.00;;
1839;SDS011;920;48.944;9.148;2023-09-07T08:47:53;7.40;;;4.93;;
1839;SDS011;920;48.944;9.148;2023-09-07T08:50:22;7.73;;;5.33;;
1839;SDS011;920;48.944;9.148;2023-09-07T08:52:50;5.83;;;5.23;;
1839;SDS011;920;48.944;9.148;2023-09-07T08:55:18;5.87;;;5.27;;
1839;SDS011;920;48.944;9.148;2023-09-07T08:57:45;8.13;;;5.67;;
1839;SDS011;920;48.944;9.148;2023-09-07T09:00:13;6.17;;;5.57;;
1839;SDS011;920;48.944;9.148;2023-09-07T09:02:41;5.27;;;4.80;;
1839;SDS011;920;48.944;9.148;2023-09-07T09:05:09;6.13;;;5.53;;
1839;SDS011;920;48.944;9.148;2023-09-07T09:07:37;6.07;;;5.47;;
1839;SDS011;920;48.944;9.148;2023-09-07T09:10:04;5.83;;;5.33;;
1839;SDS011;920;48.944;9.148;2023-09-07T09:12:32;6.10;;;5.50;;
1839;SDS011;920;48.944;9.148;2023-09-07T09:14:58;7.87;;;5.20;;
1839;SDS011;920;48.944;9.148;2023-09-07T09:17:25;6.17;;;5.57;;
1839;SDS011;920;48.944;9.148;2023-09-07T09:19:52;5.00;;;4.60;;
1839;SDS011;920;48.944;9.148;2023-09-07T09:22:19;6.30;;;5.67;;
1839;SDS011;920;48.944;9.148;2023-09-07T09:24:48;6.20;;;5.60;;
1839;SDS011;920;48.944;9.148;2023-09-07T09:27:15;5.83;;;5.33;;
1839;SDS011;920;48.944;9.148;2023-09-07T09:29:42;6.70;;;5.10;;
1839;SDS011;920;48.944;9.148;2023-09-07T09:32:09;6.23;;;5.67;;
1839;SDS011;920;48.944;9.148;2023-09-07T09:34:37;6.57;;;5.93;;
1839;SDS011;920;48.944;9.148;2023-09-07T09:37:04;7.10;;;5.90;;
1839;SDS011;920;48.944;9.148;2023-09-07T09:39:31;5.60;;;5.10;;
1839;SDS011;920;48.944;9.148;2023-09-07T09:42:00;6.23;;;5.33;;
1839;SDS011;920;48.944;9.148;2023-09-07T09:44:27;7.03;;;5.10;;
1839;SDS011;920;48.944;9.148;2023-09-07T09:46:55;5.80;;;5.30;;
1839;SDS011;920;48.944;9.148;2023-09-07T09:49:22;6.20;;;5.60;;
1839;SDS011;920;48.944;9.148;2023-09-07T09:51:51;7.37;;;6.10;;
1839;SDS011;920;48.944;9.148;2023-09-07T09:54:18;5.67;;;5.17;;
1839;SDS011;920;48.944;9.148;2023-09-07T09:56:45;6.00;;;5.43;;
1839;SDS011;920;48.944;9.148;2023-09-07T09:59:14;6.60;;;5.20;;
1839;SDS011;920;48.944;9.148;2023-09-07T10:01:41;6.00;;;5.50;;
1839;SDS011;920;48.944;9.148;2023-09-07T10:04:11;6.10;;;5.50;;
1839;SDS011;920;48.944;9.148;2023-09-07T10:06:38;6.10;;;5.50;;
1839;SDS011;920;48.944;9.148;2023-09-07T10:09:05;6.30;;;5.70;;
1839;SDS011;920;48.944;9.148;2023-09-07T10:11:32;6.27;;;5.67;;
1839;SDS011;920;48.944;9.148;2023-09-07T10:13:59;6.33;;;5.13;;
1839;SDS011;920;48.944;9.148;2023-09-07T10:16:29;7.20;;;5.40;;
1839;SDS011;920;48.944;9.148;2023-09-07T10:19:13;6.27;;;4.93;;
1839;SDS011;920;48.944;9.148;2023-09-07T10:21:40;5.43;;;4.97;;
1839;SDS011;920;48.944;9.148;2023-09-07T10:24:07;5.27;;;4.77;;
1839;SDS011;920;48.944;9.148;2023-09-07T10:26:34;7.00;;;6.30;;
1839;SDS011;920;48.944;9.148;2023-09-07T10:29:01;6.80;;;6.10;;
1839;SDS011;920;48.944;9.148;2023-09-07T10:31:32;5.70;;;5.20;;
1839;SDS011;920;48.944;9.148;2023-09-07T10:34:08;5.43;;;4.97;;
1839;SDS011;920;48.944;9.148;2023-09-07T10:36:35;6.60;;;5.57;;
1839;SDS011;920;48.944;9.148;2023-09-07T10:39:02;5.03;;;4.63;;
1839;SDS011;920;48.944;9.148;2023-09-07T10:41:39;6.30;;;5.30;;
1839;SDS011;920;48.944;9.148;2023-09-07T10:44:06;5.80;;;5.30;;
1839;SDS011;920;48.944;9.148;2023-09-07T10:46:34;5.27;;;4.77;;
1839;SDS011;920;48.944;9.148;2023-09-07T10:49:01;5.90;;;5.23;;
1839;SDS011;920;48.944;9.148;2023-09-07T10:51:28;5.50;;;5.00;;
1839;SDS011;920;48.944;9.148;2023-09-07T10:53:55;5.83;;;5.30;;
1839;SDS011;920;48.944;9.148;2023-09-07T10:56:24;6.13;;;5.43;;
1839;SDS011;920;48.944;9.148;2023-09-07T10:58:53;5.30;;;4.80;;
1839;SDS011;920;48.944;9.148;2023-09-07T11:01:20;5.70;;;5.20;;
1839;SDS011;920;48.944;9.148;2023-09-07T11:03:48;10.20;;;5.90;;
1839;SDS011;920;48.944;9.148;2023-09-07T11:06:16;6.90;;;4.80;;
1839;SDS011;920;48.944;9.148;2023-09-07T11:08:44;5.50;;;5.00;;
1839;SDS011;920;48.944;9.148;2023-09-07T11:11:13;5.63;;;5.13;;
1839;SDS011;920;48.944;9.148;2023-09-07T11:13:40;5.57;;;5.03;;
1839;SDS011;920;48.944;9.148;2023-09-07T11:16:07;6.00;;;5.40;;
1839;SDS011;920;48.944;9.148;2023-09-07T11:18:34;5.60;;;5.10;;
1839;SDS011;920;48.944;9.148;2023-09-07T11:21:03;5.40;;;4.90;;
1839;SDS011;920;48.944;9.148;2023-09-07T11:23:32;5.13;;;4.63;;
1839;SDS011;920;48.944;9.148;2023-09-07T11:26:03;5.03;;;4.63;;
1839;SDS011;920;48.944;9.148;2023-09-07T11:28:30;5.30;;;4.90;;
1839;SDS011;920;48.944;9.148;2023-09-07T11:30:58;9.33;;;5.20;;
1839;SDS011;920;48.944;9.148;2023-09-07T11:33:25;5.07;;;4.67;;
1839;SDS011;920;48.944;9.148;2023-09-07T11:35:52;5.10;;;4.70;;
1839;SDS011;920;48.944;9.148;2023-09-07T11:38:21;5.63;;;5.13;;
1839;SDS011;920;48.944;9.148;2023-09-07T11:40:48;5.03;;;4.50;;
1839;SDS011;920;48.944;9.148;2023-09-07T11:43:15;5.00;;;4.50;;
1839;SDS011;920;48.944;9.148;2023-09-07T11:45:44;5.13;;;4.63;;
1839;SDS011;920;48.944;9.148;2023-09-07T11:48:11;5.20;;;4.70;;
1839;SDS011;920;48.944;9.148;2023-09-07T11:50:39;5.70;;;4.87;;
1839;SDS011;920;48.944;9.148;2023-09-07T11:53:06;5.43;;;4.93;;
1839;SDS011;920;48.944;9.148;2023-09-07T11:55:35;6.07;;;5.33;;
1839;SDS011;920;48.944;9.148;2023-09-07T11:58:02;5.33;;;4.83;;
1839;SDS011;920;48.944;9.148;2023-09-07T12:00:29;6.13;;;4.77;;
1839;SDS011;920;48.944;9.148;2023-09-07T12:02:57;5.33;;;4.93;;
1839;SDS011;920;48.944;9.148;2023-09-07T12:05:23;5.13;;;4.63;;
1839;SDS011;920;48.944;9.148;2023-09-07T12:07:50;5.33;;;4.83;;
1839;SDS011;920;48.944;9.148;2023-09-07T12:10:17;5.00;;;4.00;;
1839;SDS011;920;48.944;9.148;2023-09-07T12:12:45;5.10;;;4.60;;
1839;SDS011;920;48.944;9.148;2023-09-07T12:15:12;5.03;;;4.53;;
1839;SDS011;920;48.944;9.148;2023-09-07T12:17:38;5.60;;;4.80;;
1839;SDS011;920;48.944;9.148;2023-09-07T12:20:06;4.47;;;4.07;;
1839;SDS011;920;48.944;9.148;2023-09-07T12:22:35;4.80;;;4.30;;
1839;SDS011;920;48.944;9.148;2023-09-07T12:25:03;4.80;;;4.40;;
1839;SDS011;920;48.944;9.148;2023-09-07T12:27:31;4.87;;;4.37;;
1839;SDS011;920;48.944;9.148;2023-09-07T12:30:00;5.10;;;4.60;;
1839;SDS011;920;48.944;9.148;2023-09-07T12:32:31;4.60;;;4.10;;
1839;SDS011;920;48.944;9.148;2023-09-07T12:34:58;5.13;;;4.30;;
1839;SDS011;920;48.944;9.148;2023-09-07T12:37:25;4.80;;;4.20;;
1839;SDS011;920;48.944;9.148;2023-09-07T12:39:52;4.20;;;3.80;;
1839;SDS011;920;48.944;9.148;2023-09-07T12:42:18;6.90;;;4.87;;
1839;SDS011;920;48.944;9.148;2023-09-07T12:44:45;4.37;;;3.80;;
1839;SDS011;920;48.944;9.148;2023-09-07T12:47:13;4.77;;;4.37;;
1839;SDS011;920;48.944;9.148;2023-09-07T12:49:40;4.30;;;3.90;;
1839;SDS011;920;48.944;9.148;2023-09-07T12:52:07;4.17;;;3.77;;
1839;SDS011;920;48.944;9.148;2023-09-07T12:54:36;4.50;;;4.10;;
1839;SDS011;920;48.944;9.148;2023-09-07T12:57:03;4.83;;;4.30;;
1839;SDS011;920;48.944;9.148;2023-09-07T12:59:30;7.57;;;4.00;;
1839;SDS011;920;48.944;9.148;2023-09-07T13:01:56;4.33;;;3.83;;
1839;SDS011;920;48.944;9.148;2023-09-07T13:04:24;4.60;;;4.20;;
1839;SDS011;920;48.944;9.148;2023-09-07T13:06:51;4.90;;;4.40;;
1839;SDS011;920;48.944;9.148;2023-09-07T13:09:18;4.67;;;4.13;;
1839;SDS011;920;48.944;9.148;2023-09-07T13:11:45;4.50;;;4.10;;
1839;SDS011;920;48.944;9.148;2023-09-07T13:14:11;5.10;;;4.20;;
1839;SDS011;920;48.944;9.148;2023-09-07T13:16:38;4.60;;;3.90;;
1839;SDS011;920;48.944;9.148;2023-09-07T13:19:05;4.00;;;3.60;;
1839;SDS011;920;48.944;9.148;2023-09-07T13:21:33;4.83;;;4.40;;
1839;SDS011;920;48.944;9.148;2023-09-07T13:23:59;4.57;;;4.17;;
1839;SDS011;920;48.944;9.148;2023-09-07T13:26:26;4.60;;;4.20;;
1839;SDS011;920;48.944;9.148;2023-09-07T13:28:53;4.53;;;4.13;;
1839;SDS011;920;48.944;9.148;2023-09-07T13:31:19;4.97;;;4.57;;
1839;SDS011;920;48.944;9.148;2023-09-07T13:33:46;5.33;;;4.60;;
1839;SDS011;920;48.944;9.148;2023-09-07T13:36:13;4.30;;;3.90;;
1839;SDS011;920;48.944;9.148;2023-09-07T13:38:41;4.60;;;4.20;;
1839;SDS011;920;48.944;9.148;2023-09-07T13:41:09;4.97;;;3.93;;
1839;SDS011;920;48.944;9.148;2023-09-07T13:43:38;4.67;;;4.27;;
1839;SDS011;920;48.944;9.148;2023-09-07T13:46:05;4.80;;;4.30;;
1839;SDS011;920;48.944;9.148;2023-09-07T13:48:31;4.20;;;3.80;;
1839;SDS011;920;48.944;9.148;2023-09-07T13:50:58;4.20;;;3.80;;
1839;SDS011;920;48.944;9.148;2023-09-07T13:53:25;4.40;;;4.00;;
1839;SDS011;920;48.944;9.148;2023-09-07T13:55:53;5.00;;;3.93;;
1839;SDS011;920;48.944;9.148;2023-09-07T13:58:20;4.60;;;4.20;;
1839;SDS011;920;48.944;9.148;2023-09-07T14:00:47;4.00;;;3.70;;
1839;SDS011;920;48.944;9.148;2023-09-07T14:03:16;4.33;;;3.93;;
1839;SDS011;920;48.944;9.148;2023-09-07T14:05:42;4.47;;;4.00;;
1839;SDS011;920;48.944;9.148;2023-09-07T14:08:09;5.40;;;4.30;;
1839;SDS011;920;48.944;9.148;2023-09-07T14:10:36;4.60;;;4.10;;
1839;SDS011;920;48.944;9.148;2023-09-07T14:13:04;4.70;;;4.17;;
1839;SDS011;920;48.944;9.148;2023-09-07T14:15:31;4.57;;;4.17;;
1839;SDS011;920;48.944;9.148;2023-09-07T14:17:57;4.50;;;4.10;;
1839;SDS011;920;48.944;9.148;2023-09-07T14:20:26;4.00;;;3.70;;
1839;SDS011;920;48.944;9.148;2023-09-07T14:22:52;5.13;;;4.20;;
1839;SDS011;920;48.944;9.148;2023-09-07T14:25:21;4.40;;;4.00;;
1839;SDS011;920;48.944;9.148;2023-09-07T14:27:48;4.73;;;3.87;;
1839;SDS011;920;48.944;9.148;2023-09-07T14:30:16;4.43;;;4.03;;
1839;SDS011;920;48.944;9.148;2023-09-07T14:32:43;5.57;;;4.03;;
1839;SDS011;920;48.944;9.148;2023-09-07T14:35:11;10.03;;;4.40;;
1839;SDS011;920;48.944;9.148;2023-09-07T14:37:38;3.90;;;3.50;;
1839;SDS011;920;48.944;9.148;2023-09-07T14:40:05;4.43;;;4.03;;
1839;SDS011;920;48.944;9.148;2023-09-07T14:42:33;4.30;;;3.83;;
1839;SDS011;920;48.944;9.148;2023-09-07T14:45:00;3.70;;;3.40;;
1839;SDS011;920;48.944;9.148;2023-09-07T14:47:28;3.87;;;3.57;;
1839;SDS011;920;48.944;9.148;2023-09-07T14:49:55;4.17;;;3.73;;
1839;SDS011;920;48.944;9.148;2023-09-07T14:52:22;5.03;;;3.80;;
1839;SDS011;920;48.944;9.148;2023-09-07T14:54:49;4.07;;;3.67;;
1839;SDS011;920;48.944;9.148;2023-09-07T14:57:16;4.73;;;3.90;;
1839;SDS011;920;48.944;9.148;2023-09-07T14:59:43;4.10;;;3.63;;
1839;SDS011;920;48.944;9.148;2023-09-07T15:02:10;4.30;;;3.90;;
1839;SDS011;920;48.944;9.148;2023-09-07T15:04:38;4.20;;;3.50;;
1839;SDS011;920;48.944;9.148;2023-09-07T15:07:04;4.63;;;3.60;;
1839;SDS011;920;48.944;9.148;2023-09-07T15:09:31;5.60;;;4.20;;
1839;SDS011;920;48.944;9.148;2023-09-07T15:11:58;4.97;;;3.67;;
1839;SDS011;920;48.944;9.148;2023-09-07T15:14:25;4.07;;;3.67;;
1839;SDS011;920;48.944;9.148;2023-09-07T15:16:52;4.50;;;3.63;;
1839;SDS011;920;48.944;9.148;2023-09-07T15:19:19;4.27;;;3.80;;
1839;SDS011;920;48.944;9.148;2023-09-07T15:21:47;4.20;;;3.80;;
1839;SDS011;920;48.944;9.148;2023-09-07T15:24:13;3.90;;;3.30;;
1839;SDS011;920;48.944;9.148;2023-09-07T15:26:40;3.77;;;3.40;;
1839;SDS011;920;48.944;9.148;2023-09-07T15:29:08;4.20;;;3.60;;
1839;SDS011;920;48.944;9.148;2023-09-07T15:31:35;4.10;;;3.70;;